sensor_id;sensor_type;location;lat;lon;timestamp;pressure;altitude;pressure_sealevel;temperature;humidity
54816;BME280;40715;55.752;37.884;2023-05-25T00:01:42;99049.22;;;34.43;28.93
54816;BME280;40715;55.752;37.884;2023-05-25T00:04:10;99045.44;;;34.44;29.29
54816;BME280;40715;55.752;37.884;2023-05-25T00:06:43;99049.22;;;34.43;29.24
54816;BME280;40715;55.752;37.884;2023-05-25T00:09:11;99046.28;;;34.45;29.39
54816;BME280;40715;55.752;37.884;2023-05-25T00:11:39;99037.91;;;34.46;29.23
54816;BME280;40715;55.752;37.884;2023-05-25T00:14:06;99036.81;;;34.40;29.49
54816;BME280;40715;55.752;37.884;2023-05-25T00:16:34;99037.00;;;34.39;29.31
54816;BME280;40715;55.752;37.884;2023-05-25T00:19:04;99027.34;;;34.36;29.37
54816;BME280;40715;55.752;37.884;2023-05-25T00:21:32;99026.25;;;34.37;29.22
54816;BME280;40715;55.752;37.884;2023-05-25T00:24:04;99031.53;;;34.39;29.19
54816;BME280;40715;55.752;37.884;2023-05-25T00:26:31;99023.16;;;34.40;29.43
54816;BME280;40715;55.752;37.884;2023-05-25T00:28:58;99020.41;;;34.40;29.26
54816;BME280;40715;55.752;37.884;2023-05-25T00:31:26;99018.72;;;34.39;29.46
54816;BME280;40715;55.752;37.884;2023-05-25T00:33:54;99015.56;;;34.43;29.24
54816;BME280;40715;55.752;37.884;2023-05-25T00:36:23;99022.09;;;34.42;29.45
54816;BME280;40715;55.752;37.884;2023-05-25T00:38:50;99022.75;;;34.44;29.47
54816;BME280;40715;55.752;37.884;2023-05-25T00:41:17;99014.75;;;34.42;29.55
54816;BME280;40715;55.752;37.884;2023-05-25T00:43:45;99011.16;;;34.42;29.38
54816;BME280;40715;55.752;37.884;2023-05-25T00:46:15;99015.97;;;34.39;29.45
54816;BME280;40715;55.752;37.884;2023-05-25T00:48:42;99013.88;;;34.42;29.37
54816;BME280;40715;55.752;37.884;2023-05-25T00:51:12;99015.38;;;34.44;29.49
54816;BME280;40715;55.752;37.884;2023-05-25T00:53:41;99009.91;;;34.44;29.48
54816;BME280;40715;55.752;37.884;2023-05-25T00:56:18;99008.44;;;34.48;29.73
54816;BME280;40715;55.752;37.884;2023-05-25T00:58:53;99006.13;;;34.45;29.63
54816;BME280;40715;55.752;37.884;2023-05-25T01:01:21;99005.25;;;34.45;29.29
54816;BME280;40715;55.752;37.884;2023-05-25T01:03:50;99003.81;;;34.42;29.48
54816;BME280;40715;55.752;37.884;2023-05-25T01:06:21;98992.00;;;34.42;29.88
54816;BME280;40715;55.752;37.884;2023-05-25T01:08:51;98985.50;;;34.43;29.84
54816;BME280;40715;55.752;37.884;2023-05-25T01:11:25;98983.59;;;34.43;29.71
54816;BME280;40715;55.752;37.884;2023-05-25T01:13:52;98974.56;;;34.43;29.82
54816;BME280;40715;55.752;37.884;2023-05-25T01:16:20;98972.84;;;34.42;29.76
54816;BME280;40715;55.752;37.884;2023-05-25T01:18:59;98968.25;;;34.49;29.52
54816;BME280;40715;55.752;37.884;2023-05-25T01:24:32;98980.50;;;34.60;29.78
54816;BME280;40715;55.752;37.884;2023-05-25T01:29:32;98980.44;;;34.39;29.70
54816;BME280;40715;55.752;37.884;2023-05-25T01:32:02;98987.59;;;34.40;29.78
54816;BME280;40715;55.752;37.884;2023-05-25T01:34:30;98986.75;;;34.40;29.75
54816;BME280;40715;55.752;37.884;2023-05-25T01:36:58;98984.00;;;34.40;29.89
54816;BME280;40715;55.752;37.884;2023-05-25T01:39:25;98987.59;;;34.40;29.84
54816;BME280;40715;55.752;37.884;2023-05-25T01:41:52;98984.00;;;34.40;29.44
54816;BME280;40715;55.752;37.884;2023-05-25T01:44:19;98995.16;;;34.38;29.94
54816;BME280;40715;55.752;37.884;2023-05-25T01:46:52;98994.53;;;34.43;29.89
54816;BME280;40715;55.752;37.884;2023-05-25T01:49:38;98999.63;;;34.53;29.78
54816;BME280;40715;55.752;37.884;2023-05-25T01:52:18;98998.34;;;34.49;29.93
54816;BME280;40715;55.752;37.884;2023-05-25T01:54:54;98996.03;;;34.46;29.80
54816;BME280;40715;55.752;37.884;2023-05-25T01:57:23;99000.00;;;34.43;29.63
54816;BME280;40715;55.752;37.884;2023-05-25T01:59:54;99005.88;;;34.40;30.04
54816;BME280;40715;55.752;37.884;2023-05-25T02:02:27;99001.44;;;34.39;29.78
54816;BME280;40715;55.752;37.884;2023-05-25T02:04:54;99006.75;;;34.40;29.72
54816;BME280;40715;55.752;37.884;2023-05-25T02:07:22;99006.75;;;34.40;29.90
54816;BME280;40715;55.752;37.884;2023-05-25T02:09:49;99010.94;;;34.43;29.87
54816;BME280;40715;55.752;37.884;2023-05-25T02:12:17;99006.75;;;34.40;29.90
54816;BME280;40715;55.752;37.884;2023-05-25T02:14:44;99011.16;;;34.42;29.79
54816;BME280;40715;55.752;37.884;2023-05-25T02:17:14;99014.53;;;34.44;29.70
54816;BME280;40715;55.752;37.884;2023-05-25T02:19:44;99011.16;;;34.42;29.92
54816;BME280;40715;55.752;37.884;2023-05-25T02:22:11;99014.75;;;34.42;29.75
54816;BME280;40715;55.752;37.884;2023-05-25T02:24:38;99013.88;;;34.42;29.79
54816;BME280;40715;55.752;37.884;2023-05-25T02:27:07;99013.88;;;34.42;30.06
54816;BME280;40715;55.752;37.884;2023-05-25T02:29:34;99019.13;;;34.43;29.83
54816;BME280;40715;55.752;37.884;2023-05-25T02:32:01;99019.13;;;34.43;29.77
54816;BME280;40715;55.752;37.884;2023-05-25T02:34:28;99018.31;;;34.43;30.06
54816;BME280;40715;55.752;37.884;2023-05-25T02:36:56;99026.50;;;34.43;30.19
54816;BME280;40715;55.752;37.884;2023-05-25T02:39:23;99031.97;;;34.43;29.90
54816;BME280;40715;55.752;37.884;2023-05-25T02:41:53;99032.81;;;34.43;29.90
54816;BME280;40715;55.752;37.884;2023-05-25T02:44:20;99028.22;;;34.44;30.02
54816;BME280;40715;55.752;37.884;2023-05-25T02:46:47;99024.59;;;34.43;29.87
54816;BME280;40715;55.752;37.884;2023-05-25T02:49:14;99026.09;;;34.46;29.78
54816;BME280;40715;55.752;37.884;2023-05-25T02:51:41;99024.41;;;34.45;30.08
54816;BME280;40715;55.752;37.884;2023-05-25T02:54:08;99022.53;;;34.45;29.94
54816;BME280;40715;55.752;37.884;2023-05-25T02:56:36;99013.47;;;34.45;30.06
54816;BME280;40715;55.752;37.884;2023-05-25T02:59:02;99016.84;;;34.47;29.84
54816;BME280;40715;55.752;37.884;2023-05-25T03:01:30;99023.38;;;34.46;29.95
54816;BME280;40715;55.752;37.884;2023-05-25T03:03:57;99025.88;;;34.47;30.04
54816;BME280;40715;55.752;37.884;2023-05-25T03:06:25;99026.75;;;34.48;30.12
54816;BME280;40715;55.752;37.884;2023-05-25T03:08:52;99032.03;;;34.49;29.84
54816;BME280;40715;55.752;37.884;2023-05-25T03:11:19;99026.56;;;34.49;30.00
54816;BME280;40715;55.752;37.884;2023-05-25T03:13:46;99038.31;;;34.50;30.28
54816;BME280;40715;55.752;37.884;2023-05-25T03:16:13;99030.75;;;34.52;30.36
54816;BME280;40715;55.752;37.884;2023-05-25T03:18:40;99031.81;;;34.51;30.75
54816;BME280;40715;55.752;37.884;2023-05-25T03:21:07;99035.16;;;34.53;30.90
54816;BME280;40715;55.752;37.884;2023-05-25T03:23:34;99035.59;;;34.50;30.48
54816;BME280;40715;55.752;37.884;2023-05-25T03:26:02;99037.06;;;34.52;30.60
54816;BME280;40715;55.752;37.884;2023-05-25T03:28:29;99037.28;;;34.51;30.35
54816;BME280;40715;55.752;37.884;2023-05-25T03:30:56;99042.53;;;34.52;30.30
54816;BME280;40715;55.752;37.884;2023-05-25T03:33:23;99032.84;;;34.50;30.46
54816;BME280;40715;55.752;37.884;2023-05-25T03:35:50;99033.69;;;34.50;30.55
54816;BME280;40715;55.752;37.884;2023-05-25T03:38:17;99033.31;;;34.53;30.36
54816;BME280;40715;55.752;37.884;2023-05-25T03:40:45;99038.56;;;34.55;30.36
54816;BME280;40715;55.752;37.884;2023-05-25T03:43:12;99033.91;;;34.55;30.35
54816;BME280;40715;55.752;37.884;2023-05-25T03:45:44;99035.63;;;34.56;30.04
54816;BME280;40715;55.752;37.884;2023-05-25T03:48:11;99043.81;;;34.56;30.16
54816;BME280;40715;55.752;37.884;2023-05-25T03:50:39;99038.56;;;34.55;29.92
54816;BME280;40715;55.752;37.884;2023-05-25T03:53:11;99042.13;;;34.55;30.00
54816;BME280;40715;55.752;37.884;2023-05-25T03:55:39;99028.66;;;34.54;29.94
54816;BME280;40715;55.752;37.884;2023-05-25T03:58:06;99027.41;;;34.56;29.78
54816;BME280;40715;55.752;37.884;2023-05-25T04:00:36;99021.50;;;34.53;29.71
54816;BME280;40715;55.752;37.884;2023-05-25T04:03:03;99019.41;;;34.55;29.76
54816;BME280;40715;55.752;37.884;2023-05-25T04:05:30;99021.09;;;34.56;29.95
54816;BME280;40715;55.752;37.884;2023-05-25T04:07:57;99014.16;;;34.53;29.79
54816;BME280;40715;55.752;37.884;2023-05-25T04:10:24;99015.81;;;34.54;29.77
54816;BME280;40715;55.752;37.884;2023-05-25T04:12:54;99008.28;;;34.56;29.71
54816;BME280;40715;55.752;37.884;2023-05-25T04:15:25;99011.84;;;34.57;29.39
54816;BME280;40715;55.752;37.884;2023-05-25T04:17:52;99008.28;;;34.56;29.22
54816;BME280;40715;55.752;37.884;2023-05-25T04:20:20;99009.94;;;34.57;29.18
54816;BME280;40715;55.752;37.884;2023-05-25T04:22:47;99007.19;;;34.57;28.77
54816;BME280;40715;55.752;37.884;2023-05-25T04:25:15;99007.41;;;34.56;28.78
54816;BME280;40715;55.752;37.884;2023-05-25T04:27:42;99011.84;;;34.57;28.86
54816;BME280;40715;55.752;37.884;2023-05-25T04:30:12;99012.03;;;34.55;28.78
54816;BME280;40715;55.752;37.884;2023-05-25T04:32:39;99003.38;;;34.52;28.69
54816;BME280;40715;55.752;37.884;2023-05-25T04:35:09;99016.47;;;34.56;28.46
54816;BME280;40715;55.752;37.884;2023-05-25T04:37:36;99022.78;;;34.57;28.84
54816;BME280;40715;55.752;37.884;2023-05-25T04:40:08;99024.47;;;34.58;28.75
54816;BME280;40715;55.752;37.884;2023-05-25T04:42:37;99023.59;;;34.57;28.68
54816;BME280;40715;55.752;37.884;2023-05-25T04:45:06;99025.72;;;34.55;29.00
54816;BME280;40715;55.752;37.884;2023-05-25T04:47:36;99019.41;;;34.55;29.01
54816;BME280;40715;55.752;37.884;2023-05-25T04:50:08;99027.41;;;34.56;29.03
54816;BME280;40715;55.752;37.884;2023-05-25T04:52:39;99019.84;;;34.58;29.08
54816;BME280;40715;55.752;37.884;2023-05-25T04:55:06;99011.22;;;34.55;29.09
54816;BME280;40715;55.752;37.884;2023-05-25T04:57:34;99012.03;;;34.55;29.07
54816;BME280;40715;55.752;37.884;2023-05-25T05:00:01;99015.41;;;34.57;28.95
54816;BME280;40715;55.752;37.884;2023-05-25T05:02:32;99016.47;;;34.56;29.14
54816;BME280;40715;55.752;37.884;2023-05-25T05:04:59;99011.84;;;34.57;28.82
54816;BME280;40715;55.752;37.884;2023-05-25T05:07:29;99013.75;;;34.56;28.49
54816;BME280;40715;55.752;37.884;2023-05-25T05:09:57;99012.66;;;34.57;28.34
54816;BME280;40715;55.752;37.884;2023-05-25T05:12:24;99018.13;;;34.57;28.45
54816;BME280;40715;55.752;37.884;2023-05-25T05:14:52;99016.47;;;34.56;28.55
54816;BME280;40715;55.752;37.884;2023-05-25T05:17:18;99019.22;;;34.56;28.58
54816;BME280;40715;55.752;37.884;2023-05-25T05:19:46;99019.22;;;34.56;28.57
54816;BME280;40715;55.752;37.884;2023-05-25T05:22:13;99016.47;;;34.56;28.55
54816;BME280;40715;55.752;37.884;2023-05-25T05:24:41;99025.72;;;34.55;28.56
54816;BME280;40715;55.752;37.884;2023-05-25T05:27:08;99026.75;;;34.54;28.66
54816;BME280;40715;55.752;37.884;2023-05-25T05:29:37;99013.94;;;34.55;28.59
54816;BME280;40715;55.752;37.884;2023-05-25T05:32:06;99012.03;;;34.55;28.53
54816;BME280;40715;55.752;37.884;2023-05-25T05:34:34;99008.69;;;34.53;28.66
54816;BME280;40715;55.752;37.884;2023-05-25T05:37:02;99015.00;;;34.54;28.68
54816;BME280;40715;55.752;37.884;2023-05-25T05:39:29;99013.28;;;34.53;28.72
54816;BME280;40715;55.752;37.884;2023-05-25T05:41:56;99013.28;;;34.53;28.59
54816;BME280;40715;55.752;37.884;2023-05-25T05:44:23;99007.00;;;34.52;28.46
54816;BME280;40715;55.752;37.884;2023-05-25T05:46:54;99008.84;;;34.52;28.39
54816;BME280;40715;55.752;37.884;2023-05-25T05:49:27;99022.53;;;34.52;28.47
54816;BME280;40715;55.752;37.884;2023-05-25T05:51:55;99015.41;;;34.51;28.59
54816;BME280;40715;55.752;37.884;2023-05-25T05:54:22;99019.81;;;34.52;28.71
54816;BME280;40715;55.752;37.884;2023-05-25T05:56:50;99017.06;;;34.52;28.50
54816;BME280;40715;55.752;37.884;2023-05-25T05:59:17;99019.81;;;34.52;28.58
54816;BME280;40715;55.752;37.884;2023-05-25T06:01:44;99014.31;;;34.52;28.44
54816;BME280;40715;55.752;37.884;2023-05-25T06:04:11;99013.28;;;34.53;28.34
54816;BME280;40715;55.752;37.884;2023-05-25T06:06:38;99012.25;;;34.54;28.64
54816;BME280;40715;55.752;37.884;2023-05-25T06:09:07;99016.69;;;34.55;28.60
54816;BME280;40715;55.752;37.884;2023-05-25T06:11:35;99011.22;;;34.55;28.45
54816;BME280;40715;55.752;37.884;2023-05-25T06:14:05;99016.28;;;34.58;28.52
54816;BME280;40715;55.752;37.884;2023-05-25T06:16:32;99014.56;;;34.57;28.45
54816;BME280;40715;55.752;37.884;2023-05-25T06:19:00;99015.41;;;34.57;28.52
54816;BME280;40715;55.752;37.884;2023-05-25T06:21:27;99009.94;;;34.57;28.75
54816;BME280;40715;55.752;37.884;2023-05-25T06:23:54;99014.56;;;34.57;28.97
54816;BME280;40715;55.752;37.884;2023-05-25T06:26:24;99009.50;;;34.54;28.90
54816;BME280;40715;55.752;37.884;2023-05-25T06:28:52;99029.94;;;34.58;28.67
54816;BME280;40715;55.752;37.884;2023-05-25T06:31:19;99025.72;;;34.55;28.79
54816;BME280;40715;55.752;37.884;2023-05-25T06:33:47;99030.34;;;34.55;29.09
54816;BME280;40715;55.752;37.884;2023-05-25T06:36:14;99038.16;;;34.58;29.15
54816;BME280;40715;55.752;37.884;2023-05-25T06:38:41;99042.56;;;34.59;29.05
54816;BME280;40715;55.752;37.884;2023-05-25T06:41:08;99041.06;;;34.50;29.36
54816;BME280;40715;55.752;37.884;2023-05-25T06:43:38;99044.81;;;34.49;29.28
54816;BME280;40715;55.752;37.884;2023-05-25T06:46:05;99042.56;;;34.59;29.25
54816;BME280;40715;55.752;37.884;2023-05-25T06:48:32;99036.91;;;34.61;29.27
54816;BME280;40715;55.752;37.884;2023-05-25T06:50:59;99031.44;;;34.61;29.38
54816;BME280;40715;55.752;37.884;2023-05-25T06:53:26;99032.47;;;34.60;29.58
54816;BME280;40715;55.752;37.884;2023-05-25T06:55:53;99037.53;;;34.63;29.31
54816;BME280;40715;55.752;37.884;2023-05-25T06:58:20;99036.91;;;34.61;29.63
54816;BME280;40715;55.752;37.884;2023-05-25T07:00:47;99035.63;;;34.63;29.49
54816;BME280;40715;55.752;37.884;2023-05-25T07:03:15;99029.91;;;34.51;30.04
54816;BME280;40715;55.752;37.884;2023-05-25T07:05:42;99038.94;;;34.52;30.25
54816;BME280;40715;55.752;37.884;2023-05-25T07:08:09;99033.09;;;34.62;30.18
54816;BME280;40715;55.752;37.884;2023-05-25T07:10:36;99017.47;;;34.49;29.69
54816;BME280;40715;55.752;37.884;2023-05-25T07:13:04;99030.16;;;34.63;30.00
54816;BME280;40715;55.752;37.884;2023-05-25T07:15:31;99037.13;;;34.66;29.99
54816;BME280;40715;55.752;37.884;2023-05-25T07:17:58;99032.50;;;34.66;30.37
54816;BME280;40715;55.752;37.884;2023-05-25T07:20:26;99035.03;;;34.68;30.04
54816;BME280;40715;55.752;37.884;2023-05-25T07:22:53;99032.28;;;34.68;30.17
54816;BME280;40715;55.752;37.884;2023-05-25T07:25:20;99038.81;;;34.67;30.23
54816;BME280;40715;55.752;37.884;2023-05-25T07:27:48;99022.81;;;34.64;30.37
54816;BME280;40715;55.752;37.884;2023-05-25T07:30:16;99026.16;;;34.66;30.16
54816;BME280;40715;55.752;37.884;2023-05-25T07:32:43;99029.13;;;34.64;30.11
54816;BME280;40715;55.752;37.884;2023-05-25T07:35:10;99032.72;;;34.65;30.07
54816;BME280;40715;55.752;37.884;2023-05-25T07:37:37;99032.72;;;34.65;30.11
54816;BME280;40715;55.752;37.884;2023-05-25T07:40:04;99032.25;;;34.61;29.98
54816;BME280;40715;55.752;37.884;2023-05-25T07:42:31;99025.97;;;34.61;30.14
54816;BME280;40715;55.752;37.884;2023-05-25T07:45:01;99022.34;;;34.60;30.18
54816;BME280;40715;55.752;37.884;2023-05-25T07:47:30;99024.06;;;34.61;30.08
54816;BME280;40715;55.752;37.884;2023-05-25T07:49:57;99023.22;;;34.61;29.93
54816;BME280;40715;55.752;37.884;2023-05-25T07:52:24;99015.84;;;34.61;30.14
54816;BME280;40715;55.752;37.884;2023-05-25T07:54:52;99019.22;;;34.56;30.14
54816;BME280;40715;55.752;37.884;2023-05-25T07:57:19;99019.84;;;34.58;30.20
54816;BME280;40715;55.752;37.884;2023-05-25T07:59:46;99008.47;;;34.55;30.48
54816;BME280;40715;55.752;37.884;2023-05-25T08:02:13;99018.78;;;34.60;30.40
54816;BME280;40715;55.752;37.884;2023-05-25T08:04:40;99015.22;;;34.59;30.14
54816;BME280;40715;55.752;37.884;2023-05-25T08:07:07;99025.97;;;34.61;30.14
54816;BME280;40715;55.752;37.884;2023-05-25T08:09:34;99017.53;;;34.62;30.39
54816;BME280;40715;55.752;37.884;2023-05-25T08:12:01;99023.63;;;34.64;30.19
54816;BME280;40715;55.752;37.884;2023-05-25T08:14:47;99017.75;;;34.67;30.01
54816;BME280;40715;55.752;37.884;2023-05-25T08:17:14;99022.19;;;34.68;30.19
54816;BME280;40715;55.752;37.884;2023-05-25T08:19:41;99020.50;;;34.67;30.62
54816;BME280;40715;55.752;37.884;2023-05-25T08:22:08;99022.38;;;34.67;30.38
54816;BME280;40715;55.752;37.884;2023-05-25T08:24:35;99019.25;;;34.70;30.25
54816;BME280;40715;55.752;37.884;2023-05-25T08:27:03;99024.72;;;34.70;30.14
54816;BME280;40715;55.752;37.884;2023-05-25T08:29:30;99017.53;;;34.69;30.22
54816;BME280;40715;55.752;37.884;2023-05-25T08:31:57;99013.34;;;34.66;30.25
54816;BME280;40715;55.752;37.884;2023-05-25T08:34:24;99016.50;;;34.70;30.12
54816;BME280;40715;55.752;37.884;2023-05-25T08:36:51;99029.56;;;34.74;30.25
54816;BME280;40715;55.752;37.884;2023-05-25T08:39:18;99032.09;;;34.76;30.03
54816;BME280;40715;55.752;37.884;2023-05-25T08:41:47;99024.09;;;34.74;30.27
54816;BME280;40715;55.752;37.884;2023-05-25T08:44:15;99028.50;;;34.75;30.04
54816;BME280;40715;55.752;37.884;2023-05-25T08:46:48;99031.25;;;34.75;30.21
54816;BME280;40715;55.752;37.884;2023-05-25T08:49:16;99030.41;;;34.75;30.00
54816;BME280;40715;55.752;37.884;2023-05-25T08:54:16;99033.78;;;34.77;30.18
54816;BME280;40715;55.752;37.884;2023-05-25T08:56:51;99035.09;;;34.81;30.06
54816;BME280;40715;55.752;37.884;2023-05-25T09:04:51;99026.69;;;34.83;29.43
54816;BME280;40715;55.752;37.884;2023-05-25T09:07:19;99024.94;;;34.75;29.24
54816;BME280;40715;55.752;37.884;2023-05-25T09:09:50;99018.81;;;34.73;29.15
54816;BME280;40715;55.752;37.884;2023-05-25T09:12:18;99026.44;;;34.78;29.18
54816;BME280;40715;55.752;37.884;2023-05-25T09:14:45;99026.25;;;34.79;29.10
54816;BME280;40715;55.752;37.884;2023-05-25T09:17:14;99019.91;;;34.79;28.98
54816;BME280;40715;55.752;37.884;2023-05-25T09:19:42;99018.06;;;34.79;28.89
54816;BME280;40715;55.752;37.884;2023-05-25T09:22:10;99012.38;;;34.81;28.99
54816;BME280;40715;55.752;37.884;2023-05-25T09:24:41;99009.63;;;34.81;28.76
54816;BME280;40715;55.752;37.884;2023-05-25T09:27:11;99000.53;;;34.73;29.00
54816;BME280;40715;55.752;37.884;2023-05-25T09:29:39;99023.53;;;34.79;28.79
54816;BME280;40715;55.752;37.884;2023-05-25T09:32:07;99014.25;;;34.80;28.69
54816;BME280;40715;55.752;37.884;2023-05-25T09:34:34;99022.63;;;34.79;28.77
54816;BME280;40715;55.752;37.884;2023-05-25T09:37:10;99023.50;;;34.86;28.97
54816;BME280;40715;55.752;37.884;2023-05-25T09:39:42;99023.31;;;34.81;28.98
54816;BME280;40715;55.752;37.884;2023-05-25T09:42:10;99012.38;;;34.81;29.17
54816;BME280;40715;55.752;37.884;2023-05-25T09:44:38;99007.28;;;34.78;29.06
54816;BME280;40715;55.752;37.884;2023-05-25T09:47:06;99007.94;;;34.80;29.07
54816;BME280;40715;55.752;37.884;2023-05-25T09:49:34;99005.59;;;34.77;28.95
54816;BME280;40715;55.752;37.884;2023-05-25T09:52:01;99014.25;;;34.80;28.89
54816;BME280;40715;55.752;37.884;2023-05-25T09:54:28;99013.59;;;34.78;29.01
54816;BME280;40715;55.752;37.884;2023-05-25T09:56:55;99014.25;;;34.80;28.47
54816;BME280;40715;55.752;37.884;2023-05-25T09:59:22;98999.72;;;34.80;28.99
54816;BME280;40715;55.752;37.884;2023-05-25T10:01:50;99008.13;;;34.78;28.91
54816;BME280;40715;55.752;37.884;2023-05-25T10:04:20;99007.72;;;34.81;28.92
54816;BME280;40715;55.752;37.884;2023-05-25T10:06:48;98998.00;;;34.79;28.94
54816;BME280;40715;55.752;37.884;2023-05-25T10:09:19;99002.84;;;34.77;28.83
54816;BME280;40715;55.752;37.884;2023-05-25T10:11:47;99001.16;;;34.75;28.97
54816;BME280;40715;55.752;37.884;2023-05-25T10:14:22;99002.25;;;34.81;29.01
54816;BME280;40715;55.752;37.884;2023-05-25T10:16:54;98994.03;;;34.81;28.98
54816;BME280;40715;55.752;37.884;2023-05-25T10:19:30;98991.09;;;34.83;29.29
54816;BME280;40715;55.752;37.884;2023-05-25T10:22:02;98996.16;;;34.86;29.10
54816;BME280;40715;55.752;37.884;2023-05-25T10:24:38;98985.44;;;34.91;28.79
54816;BME280;40715;55.752;37.884;2023-05-25T10:27:13;98983.75;;;34.90;28.98
54816;BME280;40715;55.752;37.884;2023-05-25T10:29:54;98995.56;;;34.90;29.04
54816;BME280;40715;55.752;37.884;2023-05-25T10:32:23;98997.63;;;34.88;29.07
54816;BME280;40715;55.752;37.884;2023-05-25T10:34:51;98994.69;;;34.90;29.04
54816;BME280;40715;55.752;37.884;2023-05-25T10:37:19;98987.34;;;34.90;29.41
54816;BME280;40715;55.752;37.884;2023-05-25T10:39:48;98985.44;;;34.91;29.07
54816;BME280;40715;55.752;37.884;2023-05-25T10:42:17;98984.59;;;34.90;29.17
54816;BME280;40715;55.752;37.884;2023-05-25T10:44:44;98991.53;;;34.93;28.97
54816;BME280;40715;55.752;37.884;2023-05-25T10:47:14;98978.28;;;34.90;29.10
54816;BME280;40715;55.752;37.884;2023-05-25T10:49:56;98988.59;;;35.01;29.23
54816;BME280;40715;55.752;37.884;2023-05-25T10:52:27;98985.22;;;34.92;29.19
54816;BME280;40715;55.752;37.884;2023-05-25T10:54:59;98981.22;;;34.88;29.22
54816;BME280;40715;55.752;37.884;2023-05-25T10:57:31;98977.84;;;34.93;29.25
54816;BME280;40715;55.752;37.884;2023-05-25T11:00:06;98979.75;;;34.92;29.26
54816;BME280;40715;55.752;37.884;2023-05-25T11:02:49;98983.56;;;35.05;29.09
54816;BME280;40715;55.752;37.884;2023-05-25T11:07:55;98971.31;;;34.87;29.27
54816;BME280;40715;55.752;37.884;2023-05-25T11:10:42;98983.56;;;35.05;29.10
54816;BME280;40715;55.752;37.884;2023-05-25T11:13:45;98966.53;;;35.16;29.10
54816;BME280;40715;55.752;37.884;2023-05-25T11:16:14;98961.44;;;34.93;29.20
54816;BME280;40715;55.752;37.884;2023-05-25T11:21:12;98969.84;;;34.91;29.09
54816;BME280;40715;55.752;37.884;2023-05-25T11:26:28;98938.47;;;34.87;29.43
54816;BME280;40715;55.752;37.884;2023-05-25T11:28:56;98954.69;;;34.89;29.09
54816;BME280;40715;55.752;37.884;2023-05-25T11:31:28;98955.53;;;34.89;29.25
54816;BME280;40715;55.752;37.884;2023-05-25T11:33:59;98951.94;;;34.89;29.13
54816;BME280;40715;55.752;37.884;2023-05-25T11:36:27;98954.50;;;34.90;29.09
54816;BME280;40715;55.752;37.884;2023-05-25T11:39:02;98949.88;;;34.91;29.25
54816;BME280;40715;55.752;37.884;2023-05-25T11:41:47;98944.63;;;34.96;29.40
54816;BME280;40715;55.752;37.884;2023-05-25T11:44:14;98930.72;;;34.91;29.25
54816;BME280;40715;55.752;37.884;2023-05-25T11:46:52;98938.72;;;34.92;29.04
54816;BME280;40715;55.752;37.884;2023-05-25T11:49:20;98934.69;;;34.88;29.08
54816;BME280;40715;55.752;37.884;2023-05-25T11:51:47;98934.91;;;34.87;28.98
54816;BME280;40715;55.752;37.884;2023-05-25T11:54:26;98930.72;;;34.91;29.13
54816;BME280;40715;55.752;37.884;2023-05-25T11:56:54;98943.75;;;34.89;29.05
54816;BME280;40715;55.752;37.884;2023-05-25T11:59:25;98927.75;;;34.86;29.12
54816;BME280;40715;55.752;37.884;2023-05-25T12:02:00;98931.13;;;34.88;29.14
54816;BME280;40715;55.752;37.884;2023-05-25T12:04:31;98934.28;;;34.85;29.13
54816;BME280;40715;55.752;37.884;2023-05-25T12:07:03;98943.34;;;34.85;29.47
54816;BME280;40715;55.752;37.884;2023-05-25T12:09:31;98943.75;;;34.82;29.37
54816;BME280;40715;55.752;37.884;2023-05-25T12:11:59;98932.16;;;34.80;29.10
54816;BME280;40715;55.752;37.884;2023-05-25T12:14:29;98945.25;;;34.85;29.27
54816;BME280;40715;55.752;37.884;2023-05-25T12:16:56;98931.56;;;34.85;29.24
54816;BME280;40715;55.752;37.884;2023-05-25T12:19:23;98922.06;;;34.87;29.39
54816;BME280;40715;55.752;37.884;2023-05-25T12:21:51;98915.97;;;34.85;29.36
54816;BME280;40715;55.752;37.884;2023-05-25T12:24:18;98916.59;;;34.87;29.45
54816;BME280;40715;55.752;37.884;2023-05-25T12:26:49;98913.84;;;34.87;29.43
54816;BME280;40715;55.752;37.884;2023-05-25T12:29:17;98919.13;;;34.89;29.42
54816;BME280;40715;55.752;37.884;2023-05-25T12:31:44;98911.13;;;34.87;29.49
54816;BME280;40715;55.752;37.884;2023-05-25T12:34:13;98912.81;;;34.88;29.39
54816;BME280;40715;55.752;37.884;2023-05-25T12:36:43;98910.91;;;34.89;29.39
54816;BME280;40715;55.752;37.884;2023-05-25T12:39:12;98918.94;;;34.90;29.39
54816;BME280;40715;55.752;37.884;2023-05-25T12:41:45;98921.47;;;34.92;29.45
54816;BME280;40715;55.752;37.884;2023-05-25T12:44:20;98908.81;;;34.91;29.77
54816;BME280;40715;55.752;37.884;2023-05-25T12:46:53;98921.47;;;34.92;29.70
54816;BME280;40715;55.752;37.884;2023-05-25T12:49:31;98913.88;;;34.94;29.77
54816;BME280;40715;55.752;37.884;2023-05-25T12:52:01;98922.06;;;34.87;29.73
54816;BME280;40715;55.752;37.884;2023-05-25T12:54:39;98909.66;;;34.85;29.77
54816;BME280;40715;55.752;37.884;2023-05-25T12:57:09;98917.88;;;34.85;29.72
54816;BME280;40715;55.752;37.884;2023-05-25T12:59:37;98917.00;;;34.84;29.74
54816;BME280;40715;55.752;37.884;2023-05-25T13:02:05;98914.06;;;34.86;29.69
54816;BME280;40715;55.752;37.884;2023-05-25T13:04:34;98915.97;;;34.85;29.87
54816;BME280;40715;55.752;37.884;2023-05-25T13:07:02;98916.81;;;34.86;30.17
54816;BME280;40715;55.752;37.884;2023-05-25T13:09:29;98926.69;;;34.87;29.75
54816;BME280;40715;55.752;37.884;2023-05-25T13:11:58;98929.44;;;34.87;29.73
54816;BME280;40715;55.752;37.884;2023-05-25T13:14:28;98918.72;;;34.85;29.82
54816;BME280;40715;55.752;37.884;2023-05-25T13:16:56;98927.53;;;34.87;29.62
54816;BME280;40715;55.752;37.884;2023-05-25T13:19:24;98921.66;;;34.84;29.82
54816;BME280;40715;55.752;37.884;2023-05-25T13:21:51;98919.97;;;34.89;29.59